Погода:Россия/Саратовская область/Балаково/Источники/OpenWeatherMap/1

Материал из Онлайн справочника
Перейти к навигации Перейти к поиску

Перевод: Максим Кузьмин (Cubewriter) Контакты:</br>* Skype: cubewriter</br>* E-mail: cubewriter@gmail.com</br>* Максим Кузьмин на freelance.ru
Проверка/Оформление/Редактирование: Мякишев Е.А.


 ВремяТемператураЭто свойство относится к числу специальных свойств данного вики-сайта.Максимальная температура на данный моментМинимальная температура на данный моментСкорость ветраПасмурностьВлажностьАтмосферное давление относительно уровня моряМетеорологическое направление ветраОписание погодного условия
Россия/Саратовская область/Балаково/Источники/OpenWeatherMap/1/29025720013 февраля 789985 12:00:00-0,82 °C272,33 K <br />30,524 °F <br />490,194 °R <br />-0,82 °C272,33 K <br />30,524 °F <br />490,194 °R <br />-0,82 °C272,33 K <br />30,524 °F <br />490,194 °R <br />6,52 м/с100 %91 %1011 гПа148 градус(градусов)Снег
Россия/Саратовская область/Балаково/Источники/OpenWeatherMap/1/29026080023 декабря 789994 12:00:00-0,81 °C272,34 K <br />30,542 °F <br />490,212 °R <br />-0,81 °C272,34 K <br />30,542 °F <br />490,212 °R <br />-0,81 °C272,34 K <br />30,542 °F <br />490,212 °R <br />6,83 м/с100 %93 %1009 гПа151 градус(градусов)Снег
Россия/Саратовская область/Балаково/Источники/OpenWeatherMap/1/29026440031 октября 790004 12:00:00-0,78 °C272,37 K <br />30,596 °F <br />490,266 °R <br />-0,78 °C272,37 K <br />30,596 °F <br />490,266 °R <br />-0,78 °C272,37 K <br />30,596 °F <br />490,266 °R <br />6,41 м/с100 %95 %1009 гПа159 градус(градусов)Снег
Россия/Саратовская область/Балаково/Источники/OpenWeatherMap/1/2902680009 сентября 790014 12:00:00-0,65 °C272,5 K <br />30,83 °F <br />490,5 °R <br />-0,65 °C272,5 K <br />30,83 °F <br />490,5 °R <br />-0,65 °C272,5 K <br />30,83 °F <br />490,5 °R <br />6,07 м/с100 %95 %1008 гПа169 градус(градусов)Снег
Россия/Саратовская область/Балаково/Источники/OpenWeatherMap/1/29034000027 октября 790211 12:00:000,36 °C273,51 K <br />32,648 °F <br />492,318 °R <br />0,36 °C273,51 K <br />32,648 °F <br />492,318 °R <br />0,36 °C273,51 K <br />32,648 °F <br />492,318 °R <br />6,78 м/с100 %90 %1001 гПа144 градус(градусов)Снег
Россия/Саратовская область/Балаково/Источники/OpenWeatherMap/1/2903436004 сентября 790221 12:00:000,33 °C273,48 K <br />32,594 °F <br />492,264 °R <br />0,33 °C273,48 K <br />32,594 °F <br />492,264 °R <br />0,33 °C273,48 K <br />32,594 °F <br />492,264 °R <br />6,86 м/с100 %92 %999 гПа137 градус(градусов)Снег
Россия/Саратовская область/Балаково/Источники/OpenWeatherMap/1/29034720014 июля 790231 12:00:00-0,07 °C273,08 K <br />31,874 °F <br />491,544 °R <br />-0,07 °C273,08 K <br />31,874 °F <br />491,544 °R <br />-0,07 °C273,08 K <br />31,874 °F <br />491,544 °R <br />6,74 м/с100 %94 %998 гПа133 градус(градусов)Снег
Россия/Саратовская область/Балаково/Источники/OpenWeatherMap/1/29035080022 мая 790241 12:00:00-0,02 °C273,13 K <br />31,964 °F <br />491,634 °R <br />-0,02 °C273,13 K <br />31,964 °F <br />491,634 °R <br />-0,02 °C273,13 K <br />31,964 °F <br />491,634 °R <br />5,72 м/с95 %94 %997 гПа133 градус(градусов)Снег
Россия/Саратовская область/Балаково/Источники/OpenWeatherMap/1/3211056003 марта 874445 12:00:00-5,45 °C267,7 K <br />22,19 °F <br />481,86 °R <br />-5,45 °C267,7 K <br />22,19 °F <br />481,86 °R <br />-5,45 °C267,7 K <br />22,19 °F <br />481,86 °R <br />5,36 м/с100 %90 %1014 гПа155 градус(градусов)Снег
Россия/Саратовская область/Балаково/Источники/OpenWeatherMap/1/32110920010 января 874455 12:00:00-5,71 °C267,44 K <br />21,722 °F <br />481,392 °R <br />-5,71 °C267,44 K <br />21,722 °F <br />481,392 °R <br />-5,71 °C267,44 K <br />21,722 °F <br />481,392 °R <br />4,98 м/с100 %90 %1014 гПа148 градус(градусов)Снег
Россия/Саратовская область/Балаково/Источники/OpenWeatherMap/1/3211308002 марта 874514 12:00:00-5,49 °C267,66 K <br />22,118 °F <br />481,788 °R <br />-5,49 °C267,66 K <br />22,118 °F <br />481,788 °R <br />-5,49 °C267,66 K <br />22,118 °F <br />481,788 °R <br />3,15 м/с100 %88 %1015 гПа127 градус(градусов)Снег
Россия/Саратовская область/Балаково/Источники/OpenWeatherMap/1/3211344009 января 874524 12:00:00-5,83 °C267,32 K <br />21,506 °F <br />481,176 °R <br />-5,83 °C267,32 K <br />21,506 °F <br />481,176 °R <br />-5,83 °C267,32 K <br />21,506 °F <br />481,176 °R <br />2,84 м/с100 %90 %1015 гПа123 градус(градусов)Снег
Россия/Саратовская область/Балаково/Источники/OpenWeatherMap/1/3211452004 августа 874553 12:00:00-5,62 °C267,53 K <br />21,884 °F <br />481,554 °R <br />-5,62 °C267,53 K <br />21,884 °F <br />481,554 °R <br />-5,62 °C267,53 K <br />21,884 °F <br />481,554 °R <br />3,63 м/с100 %89 %1014 гПа105 градус(градусов)Снег
Россия/Саратовская область/Балаково/Источники/OpenWeatherMap/1/32114880013 июня 874563 12:00:00-5,58 °C267,57 K <br />21,956 °F <br />481,626 °R <br />-5,58 °C267,57 K <br />21,956 °F <br />481,626 °R <br />-5,58 °C267,57 K <br />21,956 °F <br />481,626 °R <br />3,43 м/с100 %89 %1014 гПа102 градус(градусов)Снег
Россия/Саратовская область/Балаково/Источники/OpenWeatherMap/1/32115240021 апреля 874573 12:00:00-5,61 °C267,54 K <br />21,902 °F <br />481,572 °R <br />-5,61 °C267,54 K <br />21,902 °F <br />481,572 °R <br />-5,61 °C267,54 K <br />21,902 °F <br />481,572 °R <br />3,15 м/с100 %88 %1014 гПа103 градус(градусов)Снег
Россия/Саратовская область/Балаково/Источники/OpenWeatherMap/1/32115600028 февраля 874583 12:00:00-6,35 °C266,8 K <br />20,57 °F <br />480,24 °R <br />-6,35 °C266,8 K <br />20,57 °F <br />480,24 °R <br />-6,35 °C266,8 K <br />20,57 °F <br />480,24 °R <br />3,06 м/с100 %91 %1014 гПа91 градус(градусов)Снег
Россия/Саратовская область/Балаково/Источники/OpenWeatherMap/1/3211596006 января 874593 12:00:00-6,62 °C266,53 K <br />20,084 °F <br />479,754 °R <br />-6,62 °C266,53 K <br />20,084 °F <br />479,754 °R <br />-6,62 °C266,53 K <br />20,084 °F <br />479,754 °R <br />2,8 м/с100 %90 %1014 гПа98 градус(градусов)Снег
Россия/Саратовская область/Балаково/Источники/OpenWeatherMap/1/32116320016 ноября 874602 12:00:00-6,62 °C266,53 K <br />20,084 °F <br />479,754 °R <br />-6,62 °C266,53 K <br />20,084 °F <br />479,754 °R <br />-6,62 °C266,53 K <br />20,084 °F <br />479,754 °R <br />2,43 м/с100 %90 %1014 гПа94 градус(градусов)Снег
Россия/Саратовская область/Балаково/Источники/OpenWeatherMap/1/32253840017 января 878368 12:00:00-9,23 °C263,92 K <br />15,386 °F <br />475,056 °R <br />-9,23 °C263,92 K <br />15,386 °F <br />475,056 °R <br />-9,23 °C263,92 K <br />15,386 °F <br />475,056 °R <br />4,94 м/с100 %92 %1020 гПа117 градус(градусов)Снег
Россия/Саратовская область/Балаково/Источники/OpenWeatherMap/1/32254200025 ноября 878377 12:00:00-9,55 °C263,6 K <br />14,81 °F <br />474,48 °R <br />-9,55 °C263,6 K <br />14,81 °F <br />474,48 °R <br />-9,55 °C263,6 K <br />14,81 °F <br />474,48 °R <br />5,82 м/с100 %91 %1019 гПа117 градус(градусов)Снег
Россия/Саратовская область/Балаково/Источники/OpenWeatherMap/1/3225456004 октября 878387 12:00:00-10 °C263,15 K <br />14 °F <br />473,67 °R <br />-10 °C263,15 K <br />14 °F <br />473,67 °R <br />-10 °C263,15 K <br />14 °F <br />473,67 °R <br />6,5 м/с100 %92 %1017 гПа119 градус(градусов)Снег
Россия/Саратовская область/Балаково/Источники/OpenWeatherMap/1/32254920012 августа 878397 12:00:00-7,21 °C265,94 K <br />19,022 °F <br />478,692 °R <br />-7,21 °C265,94 K <br />19,022 °F <br />478,692 °R <br />-7,21 °C265,94 K <br />19,022 °F <br />478,692 °R <br />6,85 м/с100 %93 %1016 гПа124 градус(градусов)Снег
Россия/Саратовская область/Балаково/Источники/OpenWeatherMap/1/32255280021 июня 878407 12:00:00-6,68 °C266,47 K <br />19,976 °F <br />479,646 °R <br />-6,68 °C266,47 K <br />19,976 °F <br />479,646 °R <br />-6,68 °C266,47 K <br />19,976 °F <br />479,646 °R <br />7,03 м/с100 %94 %1014 гПа134 градус(градусов)Снег
Россия/Саратовская область/Балаково/Источники/OpenWeatherMap/1/32255640029 апреля 878417 12:00:00-5,86 °C267,29 K <br />21,452 °F <br />481,122 °R <br />-5,86 °C267,29 K <br />21,452 °F <br />481,122 °R <br />-5,86 °C267,29 K <br />21,452 °F <br />481,122 °R <br />7,05 м/с100 %96 %1013 гПа150 градус(градусов)Снег
Россия/Саратовская область/Балаково/Источники/OpenWeatherMap/1/3225600008 марта 878427 12:00:00-2,12 °C271,03 K <br />28,184 °F <br />487,854 °R <br />-2,12 °C271,03 K <br />28,184 °F <br />487,854 °R <br />-2,12 °C271,03 K <br />28,184 °F <br />487,854 °R <br />7,62 м/с100 %95 %1012 гПа165 градус(градусов)Снег
Россия/Саратовская область/Балаково/Источники/OpenWeatherMap/1/32256360014 января 878437 12:00:00-1,08 °C272,07 K <br />30,056 °F <br />489,726 °R <br />-1,08 °C272,07 K <br />30,056 °F <br />489,726 °R <br />-1,08 °C272,07 K <br />30,056 °F <br />489,726 °R <br />8,24 м/с100 %97 %1010 гПа178 градус(градусов)Снег
Россия/Саратовская область/Балаково/Источники/OpenWeatherMap/1/32259240022 ноября 878515 12:00:00-0,67 °C272,48 K <br />30,794 °F <br />490,464 °R <br />-0,67 °C272,48 K <br />30,794 °F <br />490,464 °R <br />-0,67 °C272,48 K <br />30,794 °F <br />490,464 °R <br />2,75 м/с100 %99 %1009 гПа202 градус(градусов)Снег
Россия/Саратовская область/Балаково/Источники/OpenWeatherMap/1/32259600030 сентября 878525 12:00:00-1,17 °C271,98 K <br />29,894 °F <br />489,564 °R <br />-1,17 °C271,98 K <br />29,894 °F <br />489,564 °R <br />-1,17 °C271,98 K <br />29,894 °F <br />489,564 °R <br />1,63 м/с100 %99 %1009 гПа233 градус(градусов)Снег
Россия/Саратовская область/Балаково/Источники/OpenWeatherMap/1/3225996009 августа 878535 12:00:00-1,67 °C271,48 K <br />28,994 °F <br />488,664 °R <br />-1,67 °C271,48 K <br />28,994 °F <br />488,664 °R <br />-1,67 °C271,48 K <br />28,994 °F <br />488,664 °R <br />1,59 м/с100 %96 %1009 гПа316 градус(градусов)Снег
Россия/Саратовская область/Балаково/Источники/OpenWeatherMap/1/32260320017 июня 878545 12:00:00-4,09 °C269,06 K <br />24,638 °F <br />484,308 °R <br />-4,09 °C269,06 K <br />24,638 °F <br />484,308 °R <br />-4,09 °C269,06 K <br />24,638 °F <br />484,308 °R <br />2,83 м/с100 %96 %1010 гПа344 градус(градусов)Снег
Россия/Саратовская область/Балаково/Источники/OpenWeatherMap/1/3231432006 декабря 880023 12:00:00-2,62 °C270,53 K <br />27,284 °F <br />486,954 °R <br />-2,62 °C270,53 K <br />27,284 °F <br />486,954 °R <br />-2,62 °C270,53 K <br />27,284 °F <br />486,954 °R <br />6,98 м/с100 %87 %1018 гПа115 градус(градусов)Снег
Россия/Саратовская область/Балаково/Источники/OpenWeatherMap/1/32314680014 октября 880033 12:00:00-2,25 °C270,9 K <br />27,95 °F <br />487,62 °R <br />-2,25 °C270,9 K <br />27,95 °F <br />487,62 °R <br />-2,25 °C270,9 K <br />27,95 °F <br />487,62 °R <br />6,88 м/с100 %88 %1018 гПа115 градус(градусов)Снег
Россия/Саратовская область/Балаково/Источники/OpenWeatherMap/1/32315040023 августа 880043 12:00:00-2,27 °C270,88 K <br />27,914 °F <br />487,584 °R <br />-2,27 °C270,88 K <br />27,914 °F <br />487,584 °R <br />-2,27 °C270,88 K <br />27,914 °F <br />487,584 °R <br />6,61 м/с100 %88 %1017 гПа116 градус(градусов)Снег
Россия/Саратовская область/Балаково/Источники/OpenWeatherMap/1/3231540001 июля 880053 12:00:00-1,69 °C271,46 K <br />28,958 °F <br />488,628 °R <br />-1,69 °C271,46 K <br />28,958 °F <br />488,628 °R <br />-1,69 °C271,46 K <br />28,958 °F <br />488,628 °R <br />6,62 м/с100 %88 %1017 гПа116 градус(градусов)Снег
Россия/Саратовская область/Балаково/Источники/OpenWeatherMap/1/35263080028 марта 960758 12:00:00-6,92 °C266,23 K <br />19,544 °F <br />479,214 °R <br />-6,92 °C266,23 K <br />19,544 °F <br />479,214 °R <br />-6,92 °C266,23 K <br />19,544 °F <br />479,214 °R <br />8,06 м/с100 %91 %1014 гПа142 градус(градусов)Снег
Россия/Саратовская область/Балаково/Источники/OpenWeatherMap/1/3526344004 февраля 960768 12:00:00-6,45 °C266,7 K <br />20,39 °F <br />480,06 °R <br />-6,45 °C266,7 K <br />20,39 °F <br />480,06 °R <br />-6,45 °C266,7 K <br />20,39 °F <br />480,06 °R <br />7,27 м/с100 %93 %1013 гПа139 градус(градусов)Снег
Россия/Саратовская область/Балаково/Источники/OpenWeatherMap/1/35263800013 декабря 960777 12:00:00-6,36 °C266,79 K <br />20,552 °F <br />480,222 °R <br />-6,36 °C266,79 K <br />20,552 °F <br />480,222 °R <br />-6,36 °C266,79 K <br />20,552 °F <br />480,222 °R <br />7,74 м/с100 %93 %1013 гПа142 градус(градусов)Снег
Россия/Саратовская область/Балаково/Источники/OpenWeatherMap/1/35265600026 марта 960827 12:00:00-5,2 °C267,95 K <br />22,64 °F <br />482,31 °R <br />-5,2 °C267,95 K <br />22,64 °F <br />482,31 °R <br />-5,2 °C267,95 K <br />22,64 °F <br />482,31 °R <br />7,64 м/с100 %93 %1008 гПа140 градус(градусов)Снег
Россия/Саратовская область/Балаково/Источники/OpenWeatherMap/1/3526596001 февраля 960837 12:00:00-5,23 °C267,92 K <br />22,586 °F <br />482,256 °R <br />-5,23 °C267,92 K <br />22,586 °F <br />482,256 °R <br />-5,23 °C267,92 K <br />22,586 °F <br />482,256 °R <br />7,93 м/с100 %93 %1006 гПа136 градус(градусов)Снег
Россия/Саратовская область/Балаково/Источники/OpenWeatherMap/1/35266320011 декабря 960846 12:00:00-4,11 °C269,04 K <br />24,602 °F <br />484,272 °R <br />-4,11 °C269,04 K <br />24,602 °F <br />484,272 °R <br />-4,11 °C269,04 K <br />24,602 °F <br />484,272 °R <br />8,33 м/с100 %94 %1005 гПа138 градус(градусов)Снег
Россия/Саратовская область/Балаково/Источники/OpenWeatherMap/1/35266680019 октября 960856 12:00:00-4 °C269,15 K <br />24,8 °F <br />484,47 °R <br />-4 °C269,15 K <br />24,8 °F <br />484,47 °R <br />-4 °C269,15 K <br />24,8 °F <br />484,47 °R <br />8,58 м/с100 %94 %1003 гПа140 градус(градусов)Снег
Россия/Саратовская область/Балаково/Источники/OpenWeatherMap/1/35267040028 августа 960866 12:00:00-2,71 °C270,44 K <br />27,122 °F <br />486,792 °R <br />-2,71 °C270,44 K <br />27,122 °F <br />486,792 °R <br />-2,71 °C270,44 K <br />27,122 °F <br />486,792 °R <br />8,59 м/с100 %95 %1001 гПа143 градус(градусов)Снег
Россия/Саратовская область/Балаково/Источники/OpenWeatherMap/1/3526740006 июля 960876 12:00:00-1,19 °C271,96 K <br />29,858 °F <br />489,528 °R <br />-1,19 °C271,96 K <br />29,858 °F <br />489,528 °R <br />-1,19 °C271,96 K <br />29,858 °F <br />489,528 °R <br />8,65 м/с100 %95 %999 гПа155 градус(градусов)Снег
Россия/Саратовская область/Балаково/Источники/OpenWeatherMap/1/35267760015 мая 960886 12:00:000,88 °C274,03 K <br />33,584 °F <br />493,254 °R <br />0,88 °C274,03 K <br />33,584 °F <br />493,254 °R <br />0,88 °C274,03 K <br />33,584 °F <br />493,254 °R <br />9,77 м/с100 %98 %996 гПа180 градус(градусов)Снег
Россия/Саратовская область/Балаково/Источники/OpenWeatherMap/1/35292600020 июня 961566 12:00:00-4,93 °C268,22 K <br />23,126 °F <br />482,796 °R <br />-4,93 °C268,22 K <br />23,126 °F <br />482,796 °R <br />-4,93 °C268,22 K <br />23,126 °F <br />482,796 °R <br />4,46 м/с100 %93 %1013 гПа186 градус(градусов)Снег
Россия/Саратовская область/Балаково/Источники/OpenWeatherMap/1/35292960028 апреля 961576 12:00:00-4,12 °C269,03 K <br />24,584 °F <br />484,254 °R <br />-4,12 °C269,03 K <br />24,584 °F <br />484,254 °R <br />-4,12 °C269,03 K <br />24,584 °F <br />484,254 °R <br />4,28 м/с100 %94 %1012 гПа182 градус(градусов)Снег
Россия/Саратовская область/Балаково/Источники/OpenWeatherMap/1/3529332007 марта 961586 12:00:00-4 °C269,15 K <br />24,8 °F <br />484,47 °R <br />-4 °C269,15 K <br />24,8 °F <br />484,47 °R <br />-4 °C269,15 K <br />24,8 °F <br />484,47 °R <br />3,96 м/с100 %94 %1010 гПа180 градус(градусов)Снег
Россия/Саратовская область/Балаково/Источники/OpenWeatherMap/1/35293680014 января 961596 12:00:00-3,43 °C269,72 K <br />25,826 °F <br />485,496 °R <br />-3,43 °C269,72 K <br />25,826 °F <br />485,496 °R <br />-3,43 °C269,72 K <br />25,826 °F <br />485,496 °R <br />3,71 м/с100 %97 %1008 гПа188 градус(градусов)Снег
Россия/Саратовская область/Балаково/Источники/OpenWeatherMap/1/35294040022 ноября 961605 12:00:00-3,29 °C269,86 K <br />26,078 °F <br />485,748 °R <br />-3,29 °C269,86 K <br />26,078 °F <br />485,748 °R <br />-3,29 °C269,86 K <br />26,078 °F <br />485,748 °R <br />2,97 м/с100 %97 %1007 гПа188 градус(градусов)Снег
Россия/Саратовская область/Балаково/Источники/OpenWeatherMap/1/3529440001 октября 961615 12:00:00-3,13 °C270,02 K <br />26,366 °F <br />486,036 °R <br />-3,13 °C270,02 K <br />26,366 °F <br />486,036 °R <br />-3,13 °C270,02 K <br />26,366 °F <br />486,036 °R <br />2,01 м/с100 %97 %1005 гПа190 градус(градусов)Снег
… следующие результаты


Данные[1]

 ВремяТемператураЭто свойство относится к числу специальных свойств данного вики-сайта.Максимальная температура на данный моментМинимальная температура на данный моментСкорость ветраПасмурностьВлажностьАтмосферное давление относительно уровня моряМетеорологическое направление ветраОписание погодного условия
Россия/Саратовская область/Балаково/Источники/OpenWeatherMap/1/28399680022 сентября 772844 12:00:00-34,64 °C238,51 K <br />-30,352 °F <br />429,318 °R <br />-34,64 °C238,51 K <br />-30,352 °F <br />429,318 °R <br />-34,64 °C238,51 K <br />-30,352 °F <br />429,318 °R <br />4,19 м/с100 %73 %1028 гПа39 градус(градусов)Сплошная облачность: 85-100%
Россия/Саратовская область/Балаково/Источники/OpenWeatherMap/1/2840004001 августа 772854 12:00:00-34,96 °C238,19 K <br />-30,928 °F <br />428,742 °R <br />-34,96 °C238,19 K <br />-30,928 °F <br />428,742 °R <br />-34,96 °C238,19 K <br />-30,928 °F <br />428,742 °R <br />4,1 м/с0 %74 %1028 гПа42 градус(градусов)Ясное небо
Россия/Саратовская область/Балаково/Источники/OpenWeatherMap/1/2840040009 июня 772864 12:00:00-35,09 °C238,06 K <br />-31,162 °F <br />428,508 °R <br />-35,09 °C238,06 K <br />-31,162 °F <br />428,508 °R <br />-35,09 °C238,06 K <br />-31,162 °F <br />428,508 °R <br />3,99 м/с99 %74 %1027 гПа46 градус(градусов)Сплошная облачность: 85-100%
Россия/Саратовская область/Балаково/Источники/OpenWeatherMap/1/28400760018 апреля 772874 12:00:00-33,84 °C239,31 K <br />-28,912 °F <br />430,758 °R <br />-33,84 °C239,31 K <br />-28,912 °F <br />430,758 °R <br />-33,84 °C239,31 K <br />-28,912 °F <br />430,758 °R <br />4,09 м/с100 %71 %1027 гПа57 градус(градусов)Сплошная облачность: 85-100%
Россия/Саратовская область/Балаково/Источники/OpenWeatherMap/1/28401120025 февраля 772884 12:00:00-34,09 °C239,06 K <br />-29,362 °F <br />430,308 °R <br />-34,09 °C239,06 K <br />-29,362 °F <br />430,308 °R <br />-34,09 °C239,06 K <br />-29,362 °F <br />430,308 °R <br />3,68 м/с100 %71 %1027 гПа68 градус(градусов)Сплошная облачность: 85-100%
Россия/Саратовская область/Балаково/Источники/OpenWeatherMap/1/2840148003 января 772894 12:00:00-34,05 °C239,1 K <br />-29,29 °F <br />430,38 °R <br />-34,05 °C239,1 K <br />-29,29 °F <br />430,38 °R <br />-34,05 °C239,1 K <br />-29,29 °F <br />430,38 °R <br />3,73 м/с100 %71 %1027 гПа64 градус(градусов)Сплошная облачность: 85-100%
Россия/Саратовская область/Балаково/Источники/OpenWeatherMap/1/28401840013 ноября 772903 12:00:00-33,86 °C239,29 K <br />-28,948 °F <br />430,722 °R <br />-33,86 °C239,29 K <br />-28,948 °F <br />430,722 °R <br />-33,86 °C239,29 K <br />-28,948 °F <br />430,722 °R <br />4,26 м/с100 %70 %1027 гПа68 градус(градусов)Сплошная облачность: 85-100%
Россия/Саратовская область/Балаково/Источники/OpenWeatherMap/1/28402200021 сентября 772913 12:00:00-34,1 °C239,05 K <br />-29,38 °F <br />430,29 °R <br />-34,1 °C239,05 K <br />-29,38 °F <br />430,29 °R <br />-34,1 °C239,05 K <br />-29,38 °F <br />430,29 °R <br />3,79 м/с100 %69 %1027 гПа73 градус(градусов)Сплошная облачность: 85-100%
Россия/Саратовская область/Балаково/Источники/OpenWeatherMap/1/28402560031 июля 772923 12:00:00-34,08 °C239,07 K <br />-29,344 °F <br />430,326 °R <br />-34,08 °C239,07 K <br />-29,344 °F <br />430,326 °R <br />-34,08 °C239,07 K <br />-29,344 °F <br />430,326 °R <br />4,2 м/с100 %69 %1026 гПа76 градус(градусов)Сплошная облачность: 85-100%
Россия/Саратовская область/Балаково/Источники/OpenWeatherMap/1/2840292008 июня 772933 12:00:00-32,79 °C240,36 K <br />-27,022 °F <br />432,648 °R <br />-32,79 °C240,36 K <br />-27,022 °F <br />432,648 °R <br />-32,79 °C240,36 K <br />-27,022 °F <br />432,648 °R <br />3,9 м/с100 %64 %1026 гПа77 градус(градусов)Сплошная облачность: 85-100%
Россия/Саратовская область/Балаково/Источники/OpenWeatherMap/1/28403280017 апреля 772943 12:00:00-28,88 °C244,27 K <br />-19,984 °F <br />439,686 °R <br />-28,88 °C244,27 K <br />-19,984 °F <br />439,686 °R <br />-28,88 °C244,27 K <br />-19,984 °F <br />439,686 °R <br />4,19 м/с100 %69 %1026 гПа80 градус(градусов)Сплошная облачность: 85-100%
Россия/Саратовская область/Балаково/Источники/OpenWeatherMap/1/28403640023 февраля 772953 12:00:00-28,83 °C244,32 K <br />-19,894 °F <br />439,776 °R <br />-28,83 °C244,32 K <br />-19,894 °F <br />439,776 °R <br />-28,83 °C244,32 K <br />-19,894 °F <br />439,776 °R <br />4,6 м/с100 %69 %1025 гПа80 градус(градусов)Легкий снег
Россия/Саратовская область/Балаково/Источники/OpenWeatherMap/1/2840400002 января 772963 12:00:00-28,64 °C244,51 K <br />-19,552 °F <br />440,118 °R <br />-28,64 °C244,51 K <br />-19,552 °F <br />440,118 °R <br />-28,64 °C244,51 K <br />-19,552 °F <br />440,118 °R <br />5,03 м/с100 %69 %1024 гПа79 градус(градусов)Легкий снег
Россия/Саратовская область/Балаково/Источники/OpenWeatherMap/1/28404360010 ноября 772972 12:00:00-28,54 °C244,61 K <br />-19,372 °F <br />440,298 °R <br />-28,54 °C244,61 K <br />-19,372 °F <br />440,298 °R <br />-28,54 °C244,61 K <br />-19,372 °F <br />440,298 °R <br />4,86 м/с100 %69 %1024 гПа82 градус(градусов)Легкий снег
Россия/Саратовская область/Балаково/Источники/OpenWeatherMap/1/28404720019 сентября 772982 12:00:00-28,62 °C244,53 K <br />-19,516 °F <br />440,154 °R <br />-28,62 °C244,53 K <br />-19,516 °F <br />440,154 °R <br />-28,62 °C244,53 K <br />-19,516 °F <br />440,154 °R <br />5,13 м/с100 %69 %1023 гПа85 градус(градусов)Легкий снег
Россия/Саратовская область/Балаково/Источники/OpenWeatherMap/1/28405080028 июля 772992 12:00:00-24,89 °C248,26 K <br />-12,802 °F <br />446,868 °R <br />-24,89 °C248,26 K <br />-12,802 °F <br />446,868 °R <br />-24,89 °C248,26 K <br />-12,802 °F <br />446,868 °R <br />5,35 м/с100 %73 %1023 гПа88 градус(градусов)Легкий снег
Россия/Саратовская область/Балаково/Источники/OpenWeatherMap/1/2840544007 июня 773002 12:00:00-24,79 °C248,36 K <br />-12,622 °F <br />447,048 °R <br />-24,79 °C248,36 K <br />-12,622 °F <br />447,048 °R <br />-24,79 °C248,36 K <br />-12,622 °F <br />447,048 °R <br />5,69 м/с100 %74 %1022 гПа90 градус(градусов)Легкий снег
Россия/Саратовская область/Балаково/Источники/OpenWeatherMap/1/28405800015 апреля 773012 12:00:00-24,64 °C248,51 K <br />-12,352 °F <br />447,318 °R <br />-24,64 °C248,51 K <br />-12,352 °F <br />447,318 °R <br />-24,64 °C248,51 K <br />-12,352 °F <br />447,318 °R <br />5,99 м/с100 %74 %1021 гПа91 градус(градусов)Легкий снег
Россия/Саратовская область/Балаково/Источники/OpenWeatherMap/1/28406160022 февраля 773022 12:00:00-24,54 °C248,61 K <br />-12,172 °F <br />447,498 °R <br />-24,54 °C248,61 K <br />-12,172 °F <br />447,498 °R <br />-24,54 °C248,61 K <br />-12,172 °F <br />447,498 °R <br />5,93 м/с100 %76 %1020 гПа90 градус(градусов)Легкий снег
Россия/Саратовская область/Балаково/Источники/OpenWeatherMap/1/2840652001 января 773032 12:00:00-24,56 °C248,59 K <br />-12,208 °F <br />447,462 °R <br />-24,56 °C248,59 K <br />-12,208 °F <br />447,462 °R <br />-24,56 °C248,59 K <br />-12,208 °F <br />447,462 °R <br />6,15 м/с100 %76 %1019 гПа88 градус(градусов)Снег
Россия/Саратовская область/Балаково/Источники/OpenWeatherMap/1/2840688009 ноября 773041 12:00:00-24,6 °C248,55 K <br />-12,28 °F <br />447,39 °R <br />-24,6 °C248,55 K <br />-12,28 °F <br />447,39 °R <br />-24,6 °C248,55 K <br />-12,28 °F <br />447,39 °R <br />6,18 м/с100 %76 %1019 гПа89 градус(градусов)Снег
Россия/Саратовская область/Балаково/Источники/OpenWeatherMap/1/28407240018 сентября 773051 12:00:00-23,6 °C249,55 K <br />-10,48 °F <br />449,19 °R <br />-23,6 °C249,55 K <br />-10,48 °F <br />449,19 °R <br />-23,6 °C249,55 K <br />-10,48 °F <br />449,19 °R <br />6,65 м/с100 %75 %1018 гПа90 градус(градусов)Снег
Россия/Саратовская область/Балаково/Источники/OpenWeatherMap/1/28407600027 июля 773061 12:00:00-21,26 °C251,89 K <br />-6,268 °F <br />453,402 °R <br />-21,26 °C251,89 K <br />-6,268 °F <br />453,402 °R <br />-21,26 °C251,89 K <br />-6,268 °F <br />453,402 °R <br />7,4 м/с100 %77 %1018 гПа93 градус(градусов)Снег
Россия/Саратовская область/Балаково/Источники/OpenWeatherMap/1/2840796005 июня 773071 12:00:00-21,21 °C251,94 K <br />-6,178 °F <br />453,492 °R <br />-21,21 °C251,94 K <br />-6,178 °F <br />453,492 °R <br />-21,21 °C251,94 K <br />-6,178 °F <br />453,492 °R <br />7,67 м/с100 %77 %1016 гПа99 градус(градусов)Снег
Россия/Саратовская область/Балаково/Источники/OpenWeatherMap/1/28408320013 апреля 773081 12:00:00-21,36 °C251,79 K <br />-6,448 °F <br />453,222 °R <br />-21,36 °C251,79 K <br />-6,448 °F <br />453,222 °R <br />-21,36 °C251,79 K <br />-6,448 °F <br />453,222 °R <br />6,77 м/с100 %77 %1016 гПа101 градус(градусов)Снег
Россия/Саратовская область/Балаково/Источники/OpenWeatherMap/1/28408680020 февраля 773091 12:00:00-21,42 °C251,73 K <br />-6,556 °F <br />453,114 °R <br />-21,42 °C251,73 K <br />-6,556 °F <br />453,114 °R <br />-21,42 °C251,73 K <br />-6,556 °F <br />453,114 °R <br />5,54 м/с100 %77 %1016 гПа96 градус(градусов)Снег
Россия/Саратовская область/Балаково/Источники/OpenWeatherMap/1/28409040030 декабря 773100 12:00:00-21,71 °C251,44 K <br />-7,078 °F <br />452,592 °R <br />-21,71 °C251,44 K <br />-7,078 °F <br />452,592 °R <br />-21,71 °C251,44 K <br />-7,078 °F <br />452,592 °R <br />5,88 м/с100 %77 %1015 гПа91 градус(градусов)Снег
Россия/Саратовская область/Балаково/Источники/OpenWeatherMap/1/2840940008 ноября 773110 12:00:00-18,09 °C255,06 K <br />-0,562 °F <br />459,108 °R <br />-18,09 °C255,06 K <br />-0,562 °F <br />459,108 °R <br />-18,09 °C255,06 K <br />-0,562 °F <br />459,108 °R <br />6,57 м/с100 %81 %1015 гПа91 градус(градусов)Снег
Россия/Саратовская область/Балаково/Источники/OpenWeatherMap/1/28409760016 сентября 773120 12:00:00-18,17 °C254,98 K <br />-0,706 °F <br />458,964 °R <br />-18,17 °C254,98 K <br />-0,706 °F <br />458,964 °R <br />-18,17 °C254,98 K <br />-0,706 °F <br />458,964 °R <br />7,06 м/с100 %81 %1013 гПа94 градус(градусов)Снег
Россия/Саратовская область/Балаково/Источники/OpenWeatherMap/1/28410120026 июля 773130 12:00:00-18,26 °C254,89 K <br />-0,868 °F <br />458,802 °R <br />-18,26 °C254,89 K <br />-0,868 °F <br />458,802 °R <br />-18,26 °C254,89 K <br />-0,868 °F <br />458,802 °R <br />6,8 м/с100 %81 %1013 гПа97 градус(градусов)Снег
Россия/Саратовская область/Балаково/Источники/OpenWeatherMap/1/2841048003 июня 773140 12:00:00-17,92 °C255,23 K <br />-0,256 °F <br />459,414 °R <br />-17,92 °C255,23 K <br />-0,256 °F <br />459,414 °R <br />-17,92 °C255,23 K <br />-0,256 °F <br />459,414 °R <br />6,53 м/с100 %81 %1013 гПа97 градус(градусов)Снег
Россия/Саратовская область/Балаково/Источники/OpenWeatherMap/1/28410840012 апреля 773150 12:00:00-18,01 °C255,14 K <br />-0,418 °F <br />459,252 °R <br />-18,01 °C255,14 K <br />-0,418 °F <br />459,252 °R <br />-18,01 °C255,14 K <br />-0,418 °F <br />459,252 °R <br />6,84 м/с100 %81 %1012 гПа97 градус(градусов)Снег
Россия/Саратовская область/Балаково/Источники/OpenWeatherMap/1/28411200019 февраля 773160 12:00:00-18 °C255,15 K <br />-0,4 °F <br />459,27 °R <br />-18 °C255,15 K <br />-0,4 °F <br />459,27 °R <br />-18 °C255,15 K <br />-0,4 °F <br />459,27 °R <br />7 м/с100 %81 %1011 гПа99 градус(градусов)Снег
Россия/Саратовская область/Балаково/Источники/OpenWeatherMap/1/28411560028 декабря 773169 12:00:00-15,99 °C257,16 K <br />3,218 °F <br />462,888 °R <br />-15,99 °C257,16 K <br />3,218 °F <br />462,888 °R <br />-15,99 °C257,16 K <br />3,218 °F <br />462,888 °R <br />6,61 м/с100 %84 %1010 гПа101 градус(градусов)Снег
Россия/Саратовская область/Балаково/Источники/OpenWeatherMap/1/2841192006 ноября 773179 12:00:00-13,54 °C259,61 K <br />7,628 °F <br />467,298 °R <br />-13,54 °C259,61 K <br />7,628 °F <br />467,298 °R <br />-13,54 °C259,61 K <br />7,628 °F <br />467,298 °R <br />6,78 м/с100 %84 %1009 гПа101 градус(градусов)Снег
Россия/Саратовская область/Балаково/Источники/OpenWeatherMap/1/28412280014 сентября 773189 12:00:00-13,69 °C259,46 K <br />7,358 °F <br />467,028 °R <br />-13,69 °C259,46 K <br />7,358 °F <br />467,028 °R <br />-13,69 °C259,46 K <br />7,358 °F <br />467,028 °R <br />7,35 м/с100 %84 %1007 гПа102 градус(градусов)Снег
Россия/Саратовская область/Балаково/Источники/OpenWeatherMap/1/28412640024 июля 773199 12:00:00-13,7 °C259,45 K <br />7,34 °F <br />467,01 °R <br />-13,7 °C259,45 K <br />7,34 °F <br />467,01 °R <br />-13,7 °C259,45 K <br />7,34 °F <br />467,01 °R <br />6,71 м/с100 %84 %1006 гПа107 градус(градусов)Снег
Россия/Саратовская область/Балаково/Источники/OpenWeatherMap/1/2841300001 июня 773209 12:00:00-13,7 °C259,45 K <br />7,34 °F <br />467,01 °R <br />-13,7 °C259,45 K <br />7,34 °F <br />467,01 °R <br />-13,7 °C259,45 K <br />7,34 °F <br />467,01 °R <br />5,8 м/с100 %84 %1006 гПа110 градус(градусов)Снег
Россия/Саратовская область/Балаково/Источники/OpenWeatherMap/1/28413360010 апреля 773219 12:00:00-13,53 °C259,62 K <br />7,646 °F <br />467,316 °R <br />-13,53 °C259,62 K <br />7,646 °F <br />467,316 °R <br />-13,53 °C259,62 K <br />7,646 °F <br />467,316 °R <br />5,98 м/с100 %85 %1006 гПа111 градус(градусов)Снег
Россия/Саратовская область/Балаково/Источники/OpenWeatherMap/1/28413720016 февраля 773229 12:00:00-9,83 °C263,32 K <br />14,306 °F <br />473,976 °R <br />-9,83 °C263,32 K <br />14,306 °F <br />473,976 °R <br />-9,83 °C263,32 K <br />14,306 °F <br />473,976 °R <br />6,24 м/с100 %89 %1004 гПа115 градус(градусов)Снег
Россия/Саратовская область/Балаково/Источники/OpenWeatherMap/1/28414080026 декабря 773238 12:00:00-9,44 °C263,71 K <br />15,008 °F <br />474,678 °R <br />-9,44 °C263,71 K <br />15,008 °F <br />474,678 °R <br />-9,44 °C263,71 K <br />15,008 °F <br />474,678 °R <br />6,2 м/с99 %89 %1003 гПа121 градус(градусов)Снег
Россия/Саратовская область/Балаково/Источники/OpenWeatherMap/1/2841444003 ноября 773248 12:00:00-9,03 °C264,12 K <br />15,746 °F <br />475,416 °R <br />-9,03 °C264,12 K <br />15,746 °F <br />475,416 °R <br />-9,03 °C264,12 K <br />15,746 °F <br />475,416 °R <br />6,47 м/с100 %89 %1002 гПа128 градус(градусов)Снег
Россия/Саратовская область/Балаково/Источники/OpenWeatherMap/1/28414800012 сентября 773258 12:00:00-8,58 °C264,57 K <br />16,556 °F <br />476,226 °R <br />-8,58 °C264,57 K <br />16,556 °F <br />476,226 °R <br />-8,58 °C264,57 K <br />16,556 °F <br />476,226 °R <br />6,59 м/с100 %89 %1001 гПа135 градус(градусов)Снег
Россия/Саратовская область/Балаково/Источники/OpenWeatherMap/1/28415160021 июля 773268 12:00:00-7,91 °C265,24 K <br />17,762 °F <br />477,432 °R <br />-7,91 °C265,24 K <br />17,762 °F <br />477,432 °R <br />-7,91 °C265,24 K <br />17,762 °F <br />477,432 °R <br />6,63 м/с100 %90 %1001 гПа140 градус(градусов)Снег
Россия/Саратовская область/Балаково/Источники/OpenWeatherMap/1/28415520030 мая 773278 12:00:00-7,13 °C266,02 K <br />19,166 °F <br />478,836 °R <br />-7,13 °C266,02 K <br />19,166 °F <br />478,836 °R <br />-7,13 °C266,02 K <br />19,166 °F <br />478,836 °R <br />6,67 м/с100 %91 %999 гПа146 градус(градусов)Снег
Россия/Саратовская область/Балаково/Источники/OpenWeatherMap/1/2841588007 апреля 773288 12:00:00-4,1 °C269,05 K <br />24,62 °F <br />484,29 °R <br />-4,1 °C269,05 K <br />24,62 °F <br />484,29 °R <br />-4,1 °C269,05 K <br />24,62 °F <br />484,29 °R <br />6,78 м/с100 %93 %999 гПа153 градус(градусов)Снег
Россия/Саратовская область/Балаково/Источники/OpenWeatherMap/1/28416240014 февраля 773298 12:00:00-4,04 °C269,11 K <br />24,728 °F <br />484,398 °R <br />-4,04 °C269,11 K <br />24,728 °F <br />484,398 °R <br />-4,04 °C269,11 K <br />24,728 °F <br />484,398 °R <br />6,22 м/с100 %93 %998 гПа155 градус(градусов)Легкий снег
Россия/Саратовская область/Балаково/Источники/OpenWeatherMap/1/28416600025 декабря 773307 12:00:00-3,24 °C269,91 K <br />26,168 °F <br />485,838 °R <br />-3,24 °C269,91 K <br />26,168 °F <br />485,838 °R <br />-3,24 °C269,91 K <br />26,168 °F <br />485,838 °R <br />5,78 м/с100 %95 %997 гПа160 градус(градусов)Легкий снег
Россия/Саратовская область/Балаково/Источники/OpenWeatherMap/1/2841696002 ноября 773317 12:00:00-2,64 °C270,51 K <br />27,248 °F <br />486,918 °R <br />-2,64 °C270,51 K <br />27,248 °F <br />486,918 °R <br />-2,64 °C270,51 K <br />27,248 °F <br />486,918 °R <br />5,27 м/с100 %96 %997 гПа167 градус(градусов)Легкий снег
Россия/Саратовская область/Балаково/Источники/OpenWeatherMap/1/28417320011 сентября 773327 12:00:00-2,01 °C271,14 K <br />28,382 °F <br />488,052 °R <br />-2,01 °C271,14 K <br />28,382 °F <br />488,052 °R <br />-2,01 °C271,14 K <br />28,382 °F <br />488,052 °R <br />5,04 м/с100 %97 %997 гПа177 градус(градусов)Легкий снег
… следующие результаты

См.также

Внешние ссылки